Time;durP1;ratioP1;P1;durP2;ratioP2;P2;SDS_P1;SDS_P2;PMS_P1;PMS_P2;Temp;Humidity;BMP_temperature;BMP_pressure;BME280_temperature;BME280_humidity;BME280_pressure;Samples;Min_cycle;Max_cycle;Signal;HPM_P1;HPM_P2
2022/03/13 00:00:12;;;;;;;;;;;;;;;14.81;30.64;101325.53;4962137;28;99041;-63
2022/03/13 00:02:44;;;;;;;;;;;;;;;14.79;30.58;101327.72;4963155;28;98102;-63
2022/03/13 00:05:16;;;;;;;;;;;;;;;14.75;30.39;101315.78;4966832;28;98166;-64
2022/03/13 00:07:43;;;;;;;;;;;;;;;14.74;30.63;101314.16;4964062;28;98533;-63
2022/03/13 00:10:09;;;;;;;;;;;;;;;14.73;30.85;101320.66;4962239;28;114001;-63
2022/03/13 00:12:35;;;;;;;;;;;;;;;14.71;30.54;101312.00;4944511;28;98169;-64
2022/03/13 00:15:10;;;;;;;;;;;;;;;14.70;30.43;101313.09;4975977;28;98140;-65
2022/03/13 00:17:36;;;;;;;;;;;;;;;14.68;30.63;101315.25;4982717;28;98216;-66
2022/03/13 00:20:04;;;;;;;;;;;;;;;14.66;30.44;101310.09;4979654;28;113133;-65
2022/03/13 00:22:32;;;;;;;;;;;;;;;14.64;30.53;101306.84;4974388;28;98092;-65
2022/03/13 00:25:02;;;;;;;;;;;;;;;14.62;30.74;101308.19;4975460;28;112646;-64
2022/03/13 00:27:30;;;;;;;;;;;;;;;14.61;30.32;101298.44;4965662;28;99178;-64
2022/03/13 00:29:57;;;;;;;;;;;;;;;14.59;30.46;101295.19;4960931;28;99034;-63
2022/03/13 00:32:23;;;;;;;;;;;;;;;14.58;30.36;101293.53;4962401;28;97925;-65
2022/03/13 00:34:49;;;;;;;;;;;;;;;14.55;30.52;101285.97;4963080;28;98123;-65
2022/03/13 00:37:17;;;;;;;;;;;;;;;14.55;30.73;101289.50;4962231;28;99280;-64
2022/03/13 00:39:44;;;;;;;;;;;;;;;14.53;30.91;101294.38;4962385;28;98537;-63
2022/03/13 00:42:12;;;;;;;;;;;;;;;14.52;30.66;101292.75;4962944;28;97995;-65
2022/03/13 00:44:38;;;;;;;;;;;;;;;14.51;30.79;101293.03;4961714;28;98077;-64
2022/03/13 00:47:05;;;;;;;;;;;;;;;14.49;30.83;101298.72;4961276;28;128936;-65
2022/03/13 00:49:31;;;;;;;;;;;;;;;14.48;30.74;101297.06;4961571;28;99235;-65
2022/03/13 00:51:59;;;;;;;;;;;;;;;14.46;30.69;101300.06;4962017;28;119230;-64
2022/03/13 00:54:24;;;;;;;;;;;;;;;14.45;30.48;101300.31;4960229;28;97991;-65
2022/03/13 00:56:50;;;;;;;;;;;;;;;14.43;30.60;101294.38;4961918;28;126909;-65
2022/03/13 00:59:17;;;;;;;;;;;;;;;14.43;30.62;101292.47;4962212;28;98365;-65
2022/03/13 01:01:43;;;;;;;;;;;;;;;14.41;30.58;101294.63;4964980;28;98615;-63
2022/03/13 01:04:09;;;;;;;;;;;;;;;14.41;30.53;101299.25;4981964;28;97748;-65
2022/03/13 01:06:35;;;;;;;;;;;;;;;14.39;30.47;101296.81;4980455;28;99093;-64
2022/03/13 01:09:00;;;;;;;;;;;;;;;14.38;30.75;101297.91;4982008;28;104766;-65
2022/03/13 01:11:26;;;;;;;;;;;;;;;14.37;30.79;101288.13;4980787;28;107382;-65
2022/03/13 01:13:53;;;;;;;;;;;;;;;14.35;30.66;101293.03;4971062;28;97644;-64
2022/03/13 01:16:19;;;;;;;;;;;;;;;14.33;30.59;101287.03;4979867;28;128052;-63
2022/03/13 01:18:53;;;;;;;;;;;;;;;14.32;30.60;101287.31;4981821;28;99043;-63
2022/03/13 01:21:19;;;;;;;;;;;;;;;14.29;30.62;101285.97;4981452;28;97796;-64
2022/03/13 01:24:04;;;;;;;;;;;;;;;14.28;30.85;101278.13;4979566;28;98231;-65
2022/03/13 01:26:34;;;;;;;;;;;;;;;14.26;30.40;101278.38;4981253;28;98111;-64
2022/03/13 01:29:01;;;;;;;;;;;;;;;14.24;30.71;101275.13;4963303;28;98290;-65
2022/03/13 01:31:35;;;;;;;;;;;;;;;14.22;30.73;101278.09;4979690;28;109775;-65
2022/03/13 01:34:01;;;;;;;;;;;;;;;14.20;30.55;101280.28;4963695;28;98124;-65
2022/03/13 01:36:27;;;;;;;;;;;;;;;14.17;30.94;101275.38;4961670;28;124059;-65
2022/03/13 01:38:54;;;;;;;;;;;;;;;14.15;30.61;101266.72;4981669;28;98403;-65
2022/03/13 01:41:20;;;;;;;;;;;;;;;14.14;30.52;101264.28;4981461;27;98035;-65
2022/03/13 01:43:47;;;;;;;;;;;;;;;14.10;30.69;101258.56;4945718;28;109053;-63
2022/03/13 01:46:13;;;;;;;;;;;;;;;14.10;30.95;101257.78;4964911;28;98835;-63
2022/03/13 01:49:03;;;;;;;;;;;;;;;14.06;30.72;101262.09;4969128;28;118938;-65
2022/03/13 01:51:30;;;;;;;;;;;;;;;14.03;30.65;101252.66;4962672;28;98263;-65
2022/03/13 01:54:02;;;;;;;;;;;;;;;14.02;30.90;101261.03;4961055;28;98148;-65
2022/03/13 01:56:28;;;;;;;;;;;;;;;13.98;30.75;101253.44;4978841;28;99678;-64
2022/03/13 01:58:55;;;;;;;;;;;;;;;13.96;30.92;101260.22;4975117;28;98261;-65
2022/03/13 02:01:21;;;;;;;;;;;;;;;13.94;30.66;101257.75;4960645;28;98099;-65
2022/03/13 02:03:47;;;;;;;;;;;;;;;13.93;30.92;101266.19;4962859;28;107400;-63
2022/03/13 02:06:13;;;;;;;;;;;;;;;13.91;30.91;101266.47;4978655;28;99006;-65
2022/03/13 02:08:39;;;;;;;;;;;;;;;13.89;30.68;101265.91;4978988;28;118621;-65
2022/03/13 02:11:05;;;;;;;;;;;;;;;13.89;30.79;101262.38;4961996;28;98074;-65
2022/03/13 02:13:34;;;;;;;;;;;;;;;13.86;30.82;101261.03;4942073;28;116641;-64
2022/03/13 02:16:00;;;;;;;;;;;;;;;13.85;30.71;101264.81;4961227;28;98803;-65
2022/03/13 02:18:26;;;;;;;;;;;;;;;13.83;30.89;101260.75;4960877;28;98228;-63
2022/03/13 02:20:53;;;;;;;;;;;;;;;13.82;30.87;101267.25;4961626;28;98319;-63
2022/03/13 02:23:23;;;;;;;;;;;;;;;13.81;30.91;101265.63;4961470;28;102171;-65
2022/03/13 02:25:51;;;;;;;;;;;;;;;13.80;30.72;101264.81;4961068;28;98420;-65
2022/03/13 02:28:22;;;;;;;;;;;;;;;13.78;30.92;101260.75;4960129;28;123407;-63
2022/03/13 02:30:49;;;;;;;;;;;;;;;13.77;30.99;101265.34;4961084;28;98545;-63
2022/03/13 02:33:21;;;;;;;;;;;;;;;13.76;30.97;101266.44;4962590;28;97973;-63
2022/03/13 02:35:58;;;;;;;;;;;;;;;13.73;30.72;101250.72;4972951;28;98994;-65
2022/03/13 02:38:24;;;;;;;;;;;;;;;13.74;30.98;101255.03;4957913;28;98412;-63
2022/03/13 02:40:51;;;;;;;;;;;;;;;13.72;30.87;101257.22;4979739;28;98522;-66
2022/03/13 02:43:17;;;;;;;;;;;;;;;13.69;30.89;101255.84;4980178;28;97758;-64
2022/03/13 02:45:43;;;;;;;;;;;;;;;13.69;30.63;101255.06;4971327;28;118371;-65
2022/03/13 02:48:09;;;;;;;;;;;;;;;13.69;30.79;101263.19;4979093;28;122639;-63
2022/03/13 02:50:35;;;;;;;;;;;;;;;13.68;30.94;101256.13;4962946;28;98092;-63
2022/03/13 02:53:01;;;;;;;;;;;;;;;13.64;31.05;101261.28;4978706;28;116668;-63
2022/03/13 02:55:27;;;;;;;;;;;;;;;13.63;31.06;101254.22;4966317;28;119267;-63
2022/03/13 02:57:53;;;;;;;;;;;;;;;13.62;30.82;101263.44;4972111;28;98611;-63
2022/03/13 03:00:19;;;;;;;;;;;;;;;13.61;31.04;101263.72;4980379;28;98210;-65
2022/03/13 03:02:45;;;;;;;;;;;;;;;13.60;31.01;101262.09;4978938;28;102685;-65
2022/03/13 03:05:11;;;;;;;;;;;;;;;13.57;30.87;101263.44;4944107;28;116110;-63
2022/03/13 03:07:37;;;;;;;;;;;;;;;13.56;30.84;101263.69;4949731;28;115787;-65
2022/03/13 03:10:04;;;;;;;;;;;;;;;13.54;31.15;101265.84;4959916;28;115040;-65
2022/03/13 03:12:30;;;;;;;;;;;;;;;13.53;31.02;101270.47;4961060;28;97884;-64
2022/03/13 03:14:56;;;;;;;;;;;;;;;13.50;31.18;101268.28;4959139;28;99322;-63
2022/03/13 03:17:22;;;;;;;;;;;;;;;13.47;31.13;101277.75;4942387;28;98305;-63
2022/03/13 03:19:48;;;;;;;;;;;;;;;13.46;31.05;101272.59;4951563;28;110441;-65
2022/03/13 03:22:14;;;;;;;;;;;;;;;13.45;31.10;101274.50;4960093;28;117031;-65
2022/03/13 03:24:40;;;;;;;;;;;;;;;13.44;31.14;101266.63;4945602;28;99002;-63
2022/03/13 03:27:06;;;;;;;;;;;;;;;13.41;30.96;101273.41;4979445;28;128478;-64
2022/03/13 03:29:32;;;;;;;;;;;;;;;13.40;31.19;101277.22;4971552;28;120929;-65
2022/03/13 03:31:58;;;;;;;;;;;;;;;13.40;30.99;101279.06;4980615;28;97811;-65
2022/03/13 03:34:25;;;;;;;;;;;;;;;13.38;31.18;101265.81;4969662;28;119075;-65
2022/03/13 03:37:01;;;;;;;;;;;;;;;13.36;30.97;101259.03;4980371;28;97956;-65
2022/03/13 03:39:28;;;;;;;;;;;;;;;13.35;31.15;101262.81;4979015;28;98133;-63
2022/03/13 03:41:54;;;;;;;;;;;;;;;13.33;31.02;101271.22;4980144;28;109448;-65
2022/03/13 03:44:21;;;;;;;;;;;;;;;13.32;31.17;101275.00;4940910;28;100505;-64
2022/03/13 03:46:47;;;;;;;;;;;;;;;13.30;31.08;101273.66;4961218;28;98311;-65
2022/03/13 03:49:13;;;;;;;;;;;;;;;13.29;31.10;101274.72;4941730;28;98834;-65
2022/03/13 03:51:39;;;;;;;;;;;;;;;13.27;31.26;101272.28;4959833;28;98054;-65
2022/03/13 03:54:06;;;;;;;;;;;;;;;13.25;31.31;101272.53;4945742;28;98158;-65
2022/03/13 03:56:32;;;;;;;;;;;;;;;13.24;31.22;101275.50;4959180;28;98306;-63
2022/03/13 03:58:58;;;;;;;;;;;;;;;13.23;31.30;101273.88;4962205;28;115081;-65
2022/03/13 04:01:24;;;;;;;;;;;;;;;13.21;31.26;101274.13;4969512;28;119093;-63
2022/03/13 04:03:50;;;;;;;;;;;;;;;13.19;31.30;101270.06;4962384;28;98529;-67
2022/03/13 04:06:16;;;;;;;;;;;;;;;13.19;31.29;101275.47;4979543;28;128065;-63
2022/03/13 04:08:42;;;;;;;;;;;;;;;13.17;31.21;101264.91;4980794;28;98405;-65
2022/03/13 04:11:08;;;;;;;;;;;;;;;13.16;31.19;101260.56;4963531;28;97774;-64
2022/03/13 04:13:38;;;;;;;;;;;;;;;13.15;31.29;101260.84;4976234;28;98364;-63
2022/03/13 04:16:08;;;;;;;;;;;;;;;13.13;31.37;101249.47;4962361;28;98268;-64
2022/03/13 04:18:35;;;;;;;;;;;;;;;13.10;31.25;101256.22;4962490;28;98312;-63
2022/03/13 04:21:02;;;;;;;;;;;;;;;13.10;31.22;101258.94;4975171;28;97977;-65
2022/03/13 04:23:28;;;;;;;;;;;;;;;13.09;31.30;101260.00;4979168;28;99111;-63
2022/03/13 04:25:54;;;;;;;;;;;;;;;13.08;31.06;101262.97;4962990;28;98609;-63
2022/03/13 04:28:20;;;;;;;;;;;;;;;13.06;31.45;101263.25;4968278;28;126946;-66
2022/03/13 04:30:47;;;;;;;;;;;;;;;13.06;31.39;101257.81;4962202;28;105962;-64
2022/03/13 04:33:16;;;;;;;;;;;;;;;13.05;31.26;101264.31;4963587;28;97914;-63
2022/03/13 04:35:42;;;;;;;;;;;;;;;13.06;31.13;101259.72;4982356;28;98827;-65
2022/03/13 04:38:08;;;;;;;;;;;;;;;13.03;31.29;101261.88;4981960;28;97945;-63
2022/03/13 04:40:34;;;;;;;;;;;;;;;13.03;31.36;101264.56;4982013;28;97940;-65
2022/03/13 04:43:01;;;;;;;;;;;;;;;13.02;31.26;101262.94;4978983;28;127315;-65
2022/03/13 04:45:27;;;;;;;;;;;;;;;13.00;31.23;101254.28;4981885;28;98397;-65
2022/03/13 04:47:53;;;;;;;;;;;;;;;13.01;31.23;101255.91;4982269;28;97874;-64
2022/03/13 04:50:19;;;;;;;;;;;;;;;12.99;31.35;101254.53;4974888;28;115623;-65
2022/03/13 04:52:45;;;;;;;;;;;;;;;12.99;31.46;101258.06;4961835;28;98842;-66
2022/03/13 04:55:11;;;;;;;;;;;;;;;12.99;31.13;101257.25;4975222;28;98449;-63
2022/03/13 04:57:37;;;;;;;;;;;;;;;12.98;31.41;101258.34;4970692;28;98224;-64
2022/03/13 05:00:03;;;;;;;;;;;;;;;12.97;31.54;101260.22;4962128;28;98184;-65
2022/03/13 05:02:29;;;;;;;;;;;;;;;12.97;31.26;101254.00;4961338;28;119695;-63
2022/03/13 05:04:55;;;;;;;;;;;;;;;12.95;31.53;101259.66;4976951;28;98124;-64
2022/03/13 05:07:22;;;;;;;;;;;;;;;12.95;31.57;101261.56;4981610;28;98164;-65
2022/03/13 05:09:48;;;;;;;;;;;;;;;12.94;31.46;101263.47;4982570;28;98182;-65
2022/03/13 05:12:14;;;;;;;;;;;;;;;12.94;31.40;101262.66;4967451;28;128304;-65
2022/03/13 05:14:40;;;;;;;;;;;;;;;12.93;31.24;101264.53;4960354;28;98356;-64
2022/03/13 05:17:06;;;;;;;;;;;;;;;12.91;31.55;101269.38;4961289;28;126939;-65
2022/03/13 05:19:32;;;;;;;;;;;;;;;12.92;31.34;101262.09;4973116;28;97706;-63
2022/03/13 05:21:58;;;;;;;;;;;;;;;12.92;31.38;101265.59;4982055;28;108513;-63
2022/03/13 05:24:24;;;;;;;;;;;;;;;12.91;31.47;101263.16;4969867;28;127061;-63
2022/03/13 05:26:50;;;;;;;;;;;;;;;12.91;31.46;101257.75;4961895;28;98267;-63
2022/03/13 05:29:16;;;;;;;;;;;;;;;12.92;31.45;101267.50;4947698;28;116007;-63
2022/03/13 05:31:43;;;;;;;;;;;;;;;12.91;31.41;101261.28;4961442;28;98026;-63
2022/03/13 05:34:10;;;;;;;;;;;;;;;12.92;31.69;101270.19;4964681;28;100321;-64
2022/03/13 05:36:35;;;;;;;;;;;;;;;12.93;31.41;101275.38;4965525;28;112143;-63
2022/03/13 05:39:02;;;;;;;;;;;;;;;12.93;31.49;101269.97;4981108;28;116432;-65
2022/03/13 05:41:28;;;;;;;;;;;;;;;12.93;31.60;101278.06;4981059;28;110566;-64
2022/03/13 05:43:54;;;;;;;;;;;;;;;12.94;31.45;101279.69;4977980;28;97749;-65
2022/03/13 05:46:20;;;;;;;;;;;;;;;12.95;31.43;101270.50;4975776;28;98374;-65
2022/03/13 05:48:46;;;;;;;;;;;;;;;12.97;31.49;101281.06;4981318;28;99139;-63
2022/03/13 05:51:12;;;;;;;;;;;;;;;12.99;31.33;101287.03;4981091;28;97924;-63
2022/03/13 05:53:38;;;;;;;;;;;;;;;13.00;31.38;101281.34;4968531;28;126902;-65
2022/03/13 05:56:04;;;;;;;;;;;;;;;13.03;31.24;101282.72;4960036;28;127515;-65
2022/03/13 05:58:30;;;;;;;;;;;;;;;13.07;31.49;101286.50;4960558;28;106732;-65
2022/03/13 06:01:08;;;;;;;;;;;;;;;13.10;31.52;101291.41;4960236;28;128058;-65
2022/03/13 06:03:34;;;;;;;;;;;;;;;13.15;31.49;101286.00;4973386;28;99016;-63
2022/03/13 06:06:02;;;;;;;;;;;;;;;13.19;31.48;101291.72;4963361;28;123758;-64
2022/03/13 06:08:28;;;;;;;;;;;;;;;13.21;31.52;101293.09;4960333;28;97981;-63
2022/03/13 06:10:54;;;;;;;;;;;;;;;13.27;31.44;101296.63;4955852;28;98598;-64
2022/03/13 06:13:22;;;;;;;;;;;;;;;13.30;31.48;101296.13;4981027;28;98214;-64
2022/03/13 06:15:48;;;;;;;;;;;;;;;13.34;31.48;101294.50;4980095;28;98033;-65
2022/03/13 06:18:14;;;;;;;;;;;;;;;13.40;31.44;101301.56;4981278;28;97803;-63
2022/03/13 06:20:40;;;;;;;;;;;;;;;13.44;31.34;101299.13;4978314;28;110698;-63
2022/03/13 06:23:06;;;;;;;;;;;;;;;13.48;31.57;101301.06;4976432;28;128024;-65
2022/03/13 06:25:31;;;;;;;;;;;;;;;13.56;31.50;101296.19;4977731;27;126808;-65
2022/03/13 06:27:57;;;;;;;;;;;;;;;13.63;31.71;101300.25;4979877;28;98045;-63
2022/03/13 06:30:25;;;;;;;;;;;;;;;13.72;31.75;101304.09;4970778;28;128573;-65
2022/03/13 06:32:52;;;;;;;;;;;;;;;13.81;31.77;101308.97;4958854;28;99110;-63
2022/03/13 06:35:19;;;;;;;;;;;;;;;13.91;31.75;101307.13;4955452;28;98859;-65
2022/03/13 06:37:45;;;;;;;;;;;;;;;13.96;31.87;101303.59;4963913;28;112136;-65
2022/03/13 06:40:11;;;;;;;;;;;;;;;14.00;31.46;101299.25;4976666;28;115529;-63
2022/03/13 06:42:38;;;;;;;;;;;;;;;14.03;31.74;101303.31;4977357;28;99002;-63
2022/03/13 06:45:05;;;;;;;;;;;;;;;14.04;31.97;101307.66;4966982;28;97984;-65
2022/03/13 06:47:31;;;;;;;;;;;;;;;14.07;31.77;101299.81;4975262;28;98006;-65
2022/03/13 06:49:57;;;;;;;;;;;;;;;14.14;32.04;101302.22;4971282;28;98582;-65
2022/03/13 06:52:23;;;;;;;;;;;;;;;14.20;31.80;101303.88;4976071;28;120936;-63
2022/03/13 06:54:48;;;;;;;;;;;;;;;14.23;32.09;101296.00;4973389;28;127058;-63
2022/03/13 06:57:15;;;;;;;;;;;;;;;14.27;31.88;101299.00;4975620;28;117376;-64
2022/03/13 06:59:42;;;;;;;;;;;;;;;14.33;32.20;101295.19;4974389;28;98318;-63
2022/03/13 07:02:09;;;;;;;;;;;;;;;14.38;32.17;101297.06;4976943;28;98153;-65
2022/03/13 07:04:35;;;;;;;;;;;;;;;14.49;32.28;101296.81;4971034;28;97823;-63
2022/03/13 07:07:01;;;;;;;;;;;;;;;14.57;32.51;101300.06;4965958;28;115701;-62
2022/03/13 07:09:27;;;;;;;;;;;;;;;14.58;32.42;101288.97;4975013;28;114459;-64
2022/03/13 07:11:53;;;;;;;;;;;;;;;14.61;32.51;101288.38;4957222;28;130062;-64
2022/03/13 07:14:21;;;;;;;;;;;;;;;14.69;32.57;101289.72;4970181;28;98942;-64
2022/03/13 07:16:47;;;;;;;;;;;;;;;14.69;32.61;101278.88;4971739;28;98027;-63
2022/03/13 07:19:13;;;;;;;;;;;;;;;14.72;32.52;101298.13;4976113;28;99319;-64
2022/03/13 07:21:39;;;;;;;;;;;;;;;14.84;32.52;101283.47;4975188;28;128908;-64
2022/03/13 07:24:05;;;;;;;;;;;;;;;14.89;32.39;101273.38;4966864;28;121170;-64
2022/03/13 07:26:31;;;;;;;;;;;;;;;14.89;32.72;101278.00;4976768;28;98128;-63
2022/03/13 07:28:57;;;;;;;;;;;;;;;14.89;32.61;101273.38;4955306;28;101072;-64
2022/03/13 07:31:23;;;;;;;;;;;;;;;14.94;32.67;101267.16;4975832;28;99413;-66
2022/03/13 07:33:49;;;;;;;;;;;;;;;15.00;33.08;101279.59;4968680;28;128378;-64
2022/03/13 07:36:15;;;;;;;;;;;;;;;15.08;32.73;101273.59;4973702;28;117544;-63
2022/03/13 07:38:41;;;;;;;;;;;;;;;15.21;33.11;101277.63;4977637;27;127894;-63
2022/03/13 07:41:07;;;;;;;;;;;;;;;15.36;32.71;101282.16;4979668;28;101908;-63
2022/03/13 07:43:33;;;;;;;;;;;;;;;15.53;32.66;101269.03;4977034;28;129300;-63
2022/03/13 07:45:59;;;;;;;;;;;;;;;15.69;32.57;101269.78;4983923;28;98059;-64
2022/03/13 07:48:25;;;;;;;;;;;;;;;15.86;32.48;101267.47;4976746;28;127872;-63
2022/03/13 07:50:51;;;;;;;;;;;;;;;16.09;32.82;101276.81;4975159;28;98697;-65
2022/03/13 07:53:17;;;;;;;;;;;;;;;16.34;32.65;101262.16;4956179;28;128497;-63
2022/03/13 07:55:43;;;;;;;;;;;;;;;16.63;32.41;101267.59;4979244;28;103959;-64
2022/03/13 07:58:09;;;;;;;;;;;;;;;16.97;32.45;101271.34;4960439;28;111494;-63
2022/03/13 08:00:35;;;;;;;;;;;;;;;17.31;32.19;101263.00;4977182;28;128331;-65
2022/03/13 08:03:01;;;;;;;;;;;;;;;17.74;31.87;101263.75;4971910;28;119535;-63
2022/03/13 08:05:27;;;;;;;;;;;;;;;18.24;31.68;101266.00;4975917;28;98373;-65
2022/03/13 08:07:54;;;;;;;;;;;;;;;18.87;31.32;101265.38;4973017;28;102668;-65
2022/03/13 08:10:23;;;;;;;;;;;;;;;19.52;30.84;101265.06;4972114;28;98715;-64
2022/03/13 08:12:49;;;;;;;;;;;;;;;20.50;30.30;101258.88;4974349;28;98146;-63
2022/03/13 08:15:15;;;;;;;;;;;;;;;21.85;29.36;101260.94;4979358;28;98230;-63
2022/03/13 08:17:41;;;;;;;;;;;;;;;23.00;28.55;101259.16;4977324;28;128452;-63
2022/03/13 08:20:07;;;;;;;;;;;;;;;24.08;27.90;101260.44;4969300;28;100041;-63
2022/03/13 08:22:33;;;;;;;;;;;;;;;25.24;27.06;101261.94;4977619;28;98429;-63
2022/03/13 08:24:59;;;;;;;;;;;;;;;26.34;26.70;101264.28;4974186;28;117677;-64
2022/03/13 08:27:25;;;;;;;;;;;;;;;27.62;26.11;101262.94;4971906;28;126680;-63
2022/03/13 08:29:51;;;;;;;;;;;;;;;28.85;25.45;101273.13;4959432;28;123589;-63
2022/03/13 08:32:17;;;;;;;;;;;;;;;30.20;24.46;101270.53;4979055;28;97892;-63
2022/03/13 08:34:44;;;;;;;;;;;;;;;31.74;23.96;101273.19;4972112;28;118001;-63
2022/03/13 08:37:10;;;;;;;;;;;;;;;33.19;22.98;101272.91;4974306;28;98612;-65
2022/03/13 08:39:36;;;;;;;;;;;;;;;34.38;22.37;101271.91;4976819;28;99200;-65
2022/03/13 08:42:05;;;;;;;;;;;;;;;35.19;22.12;101270.81;4978823;28;98424;-65
2022/03/13 08:44:31;;;;;;;;;;;;;;;35.92;21.83;101266.69;4974696;28;107496;-64
2022/03/13 08:46:58;;;;;;;;;;;;;;;36.36;22.07;101268.44;4977775;28;98338;-65
2022/03/13 08:49:24;;;;;;;;;;;;;;;37.01;21.85;101266.13;4964174;27;98482;-64
2022/03/13 08:51:50;;;;;;;;;;;;;;;37.66;21.26;101259.22;4975577;28;122934;-65
2022/03/13 08:54:16;;;;;;;;;;;;;;;38.08;21.09;101257.44;4976808;28;104288;-64
2022/03/13 08:56:42;;;;;;;;;;;;;;;38.67;21.13;101258.38;4978242;28;98364;-63
2022/03/13 08:59:09;;;;;;;;;;;;;;;39.43;20.69;101243.84;4976948;28;98186;-65
2022/03/13 09:01:35;;;;;;;;;;;;;;;40.33;19.87;101253.13;4978416;28;111207;-65
2022/03/13 09:04:01;;;;;;;;;;;;;;;41.16;19.62;101249.78;4971530;28;98016;-65
2022/03/13 09:06:27;;;;;;;;;;;;;;;41.85;19.18;101250.78;4970835;28;98276;-65
2022/03/13 09:08:52;;;;;;;;;;;;;;;42.75;18.72;101247.84;4973102;28;129197;-65
2022/03/13 09:11:18;;;;;;;;;;;;;;;43.44;18.04;101246.34;4972451;28;100156;-64
2022/03/13 09:13:44;;;;;;;;;;;;;;;43.79;18.19;101253.16;4972177;28;117140;-65
2022/03/13 09:16:10;;;;;;;;;;;;;;;44.36;17.99;101246.72;4956288;28;127795;-64
2022/03/13 09:18:37;;;;;;;;;;;;;;;44.83;17.76;101239.41;4973776;28;126004;-64
2022/03/13 09:21:02;;;;;;;;;;;;;;;45.15;17.53;101234.84;4977416;28;99834;-65
2022/03/13 09:23:28;;;;;;;;;;;;;;;45.23;17.53;101221.00;4976937;28;99086;-64
2022/03/13 09:25:55;;;;;;;;;;;;;;;45.37;17.35;101233.66;4971446;28;99155;-65
2022/03/13 09:28:21;;;;;;;;;;;;;;;45.21;17.68;101229.25;4974711;28;98976;-65
2022/03/13 09:30:48;;;;;;;;;;;;;;;45.03;17.39;101228.13;4974256;28;122127;-64
2022/03/13 09:33:14;;;;;;;;;;;;;;;44.44;18.01;101213.06;4974368;28;98120;-65
2022/03/13 09:35:40;;;;;;;;;;;;;;;43.56;18.18;101208.50;4967242;28;97932;-65
2022/03/13 09:38:06;;;;;;;;;;;;;;;42.47;19.07;101205.34;4976883;28;118509;-65
2022/03/13 09:40:33;;;;;;;;;;;;;;;41.50;19.42;101221.88;4971960;28;125234;-65
2022/03/13 09:45:25;;;;;;;;;;;;;;;40.19;20.49;101206.41;4966380;27;129664;-65
2022/03/13 09:47:51;;;;;;;;;;;;;;;39.72;20.52;101209.94;4937281;28;100287;-65
2022/03/13 09:50:17;;;;;;;;;;;;;;;39.38;20.56;101205.72;4965781;28;97928;-63
2022/03/13 09:52:43;;;;;;;;;;;;;;;39.11;20.63;101206.09;4972280;28;98095;-64
2022/03/13 09:55:10;;;;;;;;;;;;;;;38.89;20.15;101207.94;4976894;28;128993;-65
2022/03/13 09:57:37;;;;;;;;;;;;;;;38.67;20.68;101204.88;4959132;28;98388;-64
2022/03/13 10:00:10;;;;;;;;;;;;;;;38.48;20.60;101201.78;4950131;28;121062;-64
2022/03/13 10:02:38;;;;;;;;;;;;;;;38.31;20.52;101200.97;4977580;28;98108;-65
2022/03/13 10:05:08;;;;;;;;;;;;;;;38.21;20.86;101195.66;4974018;28;98299;-64
2022/03/13 10:07:59;;;;;;;;;;;;;;;38.04;20.68;101192.03;4975014;28;99561;-65
2022/03/13 10:10:42;;;;;;;;;;;;;;;37.63;20.25;101190.56;4972602;28;98825;-65
2022/03/13 10:13:09;;;;;;;;;;;;;;;37.34;20.13;101191.19;4974290;28;98434;-65
2022/03/13 10:15:42;;;;;;;;;;;;;;;37.20;19.77;101183.06;4958086;28;98492;-64
2022/03/13 10:18:12;;;;;;;;;;;;;;;37.13;19.85;101183.22;4950455;28;98434;-65
2022/03/13 10:20:41;;;;;;;;;;;;;;;37.13;19.88;101182.44;4972686;28;98257;-66
2022/03/13 10:23:10;;;;;;;;;;;;;;;37.12;19.55;101184.44;4977194;28;98611;-64
2022/03/13 10:25:41;;;;;;;;;;;;;;;37.10;19.56;101184.06;4972569;28;97895;-66
2022/03/13 10:28:16;;;;;;;;;;;;;;;37.10;19.56;101182.09;4976783;28;98580;-66
2022/03/13 10:30:42;;;;;;;;;;;;;;;37.12;19.36;101189.28;4976462;28;98573;-65
2022/03/13 10:33:08;;;;;;;;;;;;;;;37.14;19.30;101184.81;4978015;28;98179;-64
2022/03/13 10:35:36;;;;;;;;;;;;;;;37.19;19.36;101180.72;4965133;28;99521;-65
2022/03/13 10:38:18;;;;;;;;;;;;;;;37.24;19.11;101172.53;4976114;28;97987;-65
2022/03/13 10:40:45;;;;;;;;;;;;;;;37.29;19.22;101174.84;4960033;28;99051;-65
2022/03/13 10:43:12;;;;;;;;;;;;;;;37.37;19.18;101174.69;4977491;28;97941;-65
2022/03/13 10:45:41;;;;;;;;;;;;;;;37.44;19.45;101175.34;4951963;28;98650;-64
2022/03/13 10:48:20;;;;;;;;;;;;;;;37.54;19.28;101174.31;4975769;28;98345;-64
2022/03/13 10:50:47;;;;;;;;;;;;;;;37.66;19.04;101172.06;4974733;28;98133;-64
2022/03/13 10:53:13;;;;;;;;;;;;;;;37.80;19.08;101166.06;4968816;28;97953;-64
2022/03/13 10:55:41;;;;;;;;;;;;;;;37.97;18.64;101170.50;4957349;28;98720;-64
2022/03/13 10:58:07;;;;;;;;;;;;;;;38.14;18.97;101170.50;4977344;28;98972;-64
2022/03/13 11:00:34;;;;;;;;;;;;;;;38.28;18.13;101173.75;4972164;28;125543;-65
2022/03/13 11:03:14;;;;;;;;;;;;;;;38.40;18.36;101168.63;4977236;28;97710;-64
2022/03/13 11:05:40;;;;;;;;;;;;;;;38.52;18.31;101170.72;4970538;28;99143;-66
2022/03/13 11:08:07;;;;;;;;;;;;;;;38.60;18.59;101171.31;4974260;28;99020;-64
2022/03/13 11:10:37;;;;;;;;;;;;;;;38.70;18.30;101170.22;4971611;28;98831;-64
2022/03/13 11:13:04;;;;;;;;;;;;;;;38.81;18.34;101167.13;4972253;28;97967;-65
2022/03/13 11:15:31;;;;;;;;;;;;;;;38.94;17.95;101165.91;4969970;28;128467;-66
2022/03/13 11:17:57;;;;;;;;;;;;;;;39.08;17.78;101167.53;4972533;28;98228;-64
2022/03/13 11:20:23;;;;;;;;;;;;;;;39.23;17.61;101163.09;4957200;28;119939;-64
2022/03/13 11:22:49;;;;;;;;;;;;;;;39.39;17.61;101161.41;4961780;28;98063;-64
2022/03/13 11:25:16;;;;;;;;;;;;;;;39.53;17.92;101163.75;4974268;28;127807;-64
2022/03/13 11:27:42;;;;;;;;;;;;;;;39.67;17.51;101165.34;4944557;28;118355;-64
2022/03/13 11:30:09;;;;;;;;;;;;;;;39.80;17.34;101154.88;4973479;28;97906;-64
2022/03/13 11:32:42;;;;;;;;;;;;;;;39.89;17.41;101149.34;4962453;28;97933;-65
2022/03/13 11:35:13;;;;;;;;;;;;;;;40.00;17.08;101155.38;4960500;28;98734;-64
2022/03/13 11:37:43;;;;;;;;;;;;;;;40.11;17.29;101163.53;4088754;27;10000408;-64
2022/03/13 11:40:10;;;;;;;;;;;;;;;40.13;17.02;101152.59;4970995;28;98508;-65
2022/03/13 11:42:54;;;;;;;;;;;;;;;40.08;16.86;101147.47;4977252;28;111788;-64
2022/03/13 11:45:30;;;;;;;;;;;;;;;39.93;17.32;101154.84;4960038;28;98209;-65
2022/03/13 11:48:22;;;;;;;;;;;;;;;39.73;16.85;101143.81;4973343;28;98017;-65
2022/03/13 11:50:55;;;;;;;;;;;;;;;39.50;16.68;101139.31;4977626;28;98267;-65
2022/03/13 11:53:24;;;;;;;;;;;;;;;39.29;16.96;101137.94;4975520;28;98823;-64
2022/03/13 11:56:02;;;;;;;;;;;;;;;39.13;16.85;101136.00;4072606;28;10001086;-66
2022/03/13 11:58:51;;;;;;;;;;;;;;;38.96;17.34;101131.69;4976866;28;98752;-67
2022/03/13 12:01:29;;;;;;;;;;;;;;;38.73;16.64;101122.25;4973829;28;124936;-66
2022/03/13 12:04:01;;;;;;;;;;;;;;;38.45;17.13;101117.44;4972482;28;98185;-64
2022/03/13 12:06:41;;;;;;;;;;;;;;;38.16;16.97;101111.75;4971955;28;98779;-66
2022/03/13 12:09:19;;;;;;;;;;;;;;;37.87;16.90;101114.50;4958292;28;98933;-65
2022/03/13 12:11:58;;;;;;;;;;;;;;;37.59;17.19;101116.78;4946707;28;98366;-65
2022/03/13 12:14:54;;;;;;;;;;;;;;;37.27;16.73;101109.88;4077428;28;10000334;-65
2022/03/13 12:17:22;;;;;;;;;;;;;;;36.93;16.79;101103.78;4067391;28;10000891;-66
2022/03/13 12:19:48;;;;;;;;;;;;;;;36.61;17.09;101096.81;4956417;28;98560;-64
2022/03/13 12:22:15;;;;;;;;;;;;;;;36.35;17.04;101093.69;4978056;28;98429;-64
2022/03/13 12:24:51;;;;;;;;;;;;;;;36.11;17.09;101092.91;4970964;28;98262;-65
2022/03/13 12:27:17;;;;;;;;;;;;;;;35.80;17.33;101088.63;4964166;28;98352;-66
2022/03/13 12:29:47;;;;;;;;;;;;;;;35.52;17.15;101087.09;4973229;28;98377;-64
2022/03/13 12:32:13;;;;;;;;;;;;;;;35.19;17.27;101092.34;4957979;28;98487;-66
2022/03/13 12:34:42;;;;;;;;;;;;;;;34.82;17.17;101094.03;4971851;28;124867;-66
2022/03/13 12:37:09;;;;;;;;;;;;;;;34.48;17.57;101094.00;4977615;28;98246;-66